Elmer, Pennsylvania
Current Conditions -  °F | °C
As of 7:15 AM on Wednesday 28 Jan 2015 (Local Time) from KN38 Reporting Station
Clear Clear  
Wind Chill: -5°   Ceiling: Unl
Heat Index:   Visibility: 10mi
Dew Point:   Wind: 9mph
Humidity: 67%   Direction: 310°NW
Pressure: 30.07"   Gusts: 15mph
Location:  41.9252°N, 77.5198°W
Report Text: KN38 281215Z AUTO 31008G13KT 10SM CLR M13/M18 A3007 RMK AO2
Loading
Personal Weather Stations






























Interactive Weather Map New forecast layout! Learn more

10-Day Weather Forecast

Advertisements
Track Severe Weather on mobile